sensor_id;sensor_type;location;lat;lon;timestamp;temperature;humidity
19805;DHT22;10062;51.052;13.756;2023-04-25T00:01:30;10.40;1.00
19805;DHT22;10062;51.052;13.756;2023-04-25T00:04:02;10.40;99.90
19805;DHT22;10062;51.052;13.756;2023-04-25T00:06:37;10.50;1.00
19805;DHT22;10062;51.052;13.756;2023-04-25T00:09:09;10.60;60.00
19805;DHT22;10062;51.052;13.756;2023-04-25T00:11:41;10.40;99.90
19805;DHT22;10062;51.052;13.756;2023-04-25T00:14:13;10.50;99.90
19805;DHT22;10062;51.052;13.756;2023-04-25T00:16:45;10.60;99.90
19805;DHT22;10062;51.052;13.756;2023-04-25T00:19:17;10.50;1.00
19805;DHT22;10062;51.052;13.756;2023-04-25T00:21:50;10.50;1.00
19805;DHT22;10062;51.052;13.756;2023-04-25T00:24:21;10.60;99.90
19805;DHT22;10062;51.052;13.756;2023-04-25T00:26:53;10.50;1.00
19805;DHT22;10062;51.052;13.756;2023-04-25T00:29:25;10.50;99.90
19805;DHT22;10062;51.052;13.756;2023-04-25T00:34:28;10.60;1.00
19805;DHT22;10062;51.052;13.756;2023-04-25T00:37:01;10.60;1.00
19805;DHT22;10062;51.052;13.756;2023-04-25T00:39:33;10.50;1.00
19805;DHT22;10062;51.052;13.756;2023-04-25T00:42:05;10.60;1.00
19805;DHT22;10062;51.052;13.756;2023-04-25T00:44:37;10.50;1.00
19805;DHT22;10062;51.052;13.756;2023-04-25T00:47:11;10.50;1.00
19805;DHT22;10062;51.052;13.756;2023-04-25T00:49:42;10.50;1.00
19805;DHT22;10062;51.052;13.756;2023-04-25T00:52:17;10.40;99.90
19805;DHT22;10062;51.052;13.756;2023-04-25T00:54:49;10.40;99.90
19805;DHT22;10062;51.052;13.756;2023-04-25T00:57:20;10.40;1.00
19805;DHT22;10062;51.052;13.756;2023-04-25T00:59:53;10.40;1.00
19805;DHT22;10062;51.052;13.756;2023-04-25T01:02:25;10.30;1.00
19805;DHT22;10062;51.052;13.756;2023-04-25T01:04:57;10.20;1.00
19805;DHT22;10062;51.052;13.756;2023-04-25T01:07:30;10.20;99.90
19805;DHT22;10062;51.052;13.756;2023-04-25T01:10:02;10.10;99.90
19805;DHT22;10062;51.052;13.756;2023-04-25T01:12:35;10.00;99.90
19805;DHT22;10062;51.052;13.756;2023-04-25T01:15:07;10.00;99.90
19805;DHT22;10062;51.052;13.756;2023-04-25T01:17:40;9.90;93.00
19805;DHT22;10062;51.052;13.756;2023-04-25T01:20:12;9.90;99.90
19805;DHT22;10062;51.052;13.756;2023-04-25T01:22:46;9.80;99.90
19805;DHT22;10062;51.052;13.756;2023-04-25T01:25:19;9.80;1.00
19805;DHT22;10062;51.052;13.756;2023-04-25T01:30:23;9.70;1.00
19805;DHT22;10062;51.052;13.756;2023-04-25T01:32:55;9.70;99.90
19805;DHT22;10062;51.052;13.756;2023-04-25T01:35:27;9.70;1.00
19805;DHT22;10062;51.052;13.756;2023-04-25T01:38:00;9.60;1.00
19805;DHT22;10062;51.052;13.756;2023-04-25T01:40:33;9.60;1.00
19805;DHT22;10062;51.052;13.756;2023-04-25T01:43:05;9.60;1.00
19805;DHT22;10062;51.052;13.756;2023-04-25T01:45:38;9.50;1.00
19805;DHT22;10062;51.052;13.756;2023-04-25T01:48:14;9.50;1.00
19805;DHT22;10062;51.052;13.756;2023-04-25T01:50:48;9.50;1.00
19805;DHT22;10062;51.052;13.756;2023-04-25T01:53:21;9.50;1.00
19805;DHT22;10062;51.052;13.756;2023-04-25T01:55:53;9.50;1.00
19805;DHT22;10062;51.052;13.756;2023-04-25T01:58:26;9.40;1.00
19805;DHT22;10062;51.052;13.756;2023-04-25T02:01:20;9.60;99.90
19805;DHT22;10062;51.052;13.756;2023-04-25T02:04:06;9.20;72.60
19805;DHT22;10062;51.052;13.756;2023-04-25T02:06:40;9.20;1.00
19805;DHT22;10062;51.052;13.756;2023-04-25T02:09:14;9.10;99.90
19805;DHT22;10062;51.052;13.756;2023-04-25T02:11:50;9.10;99.90
19805;DHT22;10062;51.052;13.756;2023-04-25T02:14:37;9.00;99.90
19805;DHT22;10062;51.052;13.756;2023-04-25T02:17:16;9.00;99.90
19805;DHT22;10062;51.052;13.756;2023-04-25T02:19:49;8.90;44.90
19805;DHT22;10062;51.052;13.756;2023-04-25T02:24:54;8.90;1.00
19805;DHT22;10062;51.052;13.756;2023-04-25T02:27:26;8.90;47.10
19805;DHT22;10062;51.052;13.756;2023-04-25T02:29:58;8.80;99.90
19805;DHT22;10062;51.052;13.756;2023-04-25T02:32:29;8.80;1.00
19805;DHT22;10062;51.052;13.756;2023-04-25T02:35:02;8.70;99.90
19805;DHT22;10062;51.052;13.756;2023-04-25T02:37:36;8.80;99.90
19805;DHT22;10062;51.052;13.756;2023-04-25T02:40:10;8.80;99.90
19805;DHT22;10062;51.052;13.756;2023-04-25T02:42:42;8.70;99.90
19805;DHT22;10062;51.052;13.756;2023-04-25T02:45:16;8.70;99.90
19805;DHT22;10062;51.052;13.756;2023-04-25T02:47:47;8.80;1.00
19805;DHT22;10062;51.052;13.756;2023-04-25T02:50:19;8.80;48.90
19805;DHT22;10062;51.052;13.756;2023-04-25T02:52:51;8.70;99.90
19805;DHT22;10062;51.052;13.756;2023-04-25T02:55:30;8.70;99.90
19805;DHT22;10062;51.052;13.756;2023-04-25T02:58:04;8.70;99.90
19805;DHT22;10062;51.052;13.756;2023-04-25T03:00:44;8.70;99.90
19805;DHT22;10062;51.052;13.756;2023-04-25T03:03:16;8.70;99.90
19805;DHT22;10062;51.052;13.756;2023-04-25T03:11:01;8.70;8.60
19805;DHT22;10062;51.052;13.756;2023-04-25T03:13:33;8.70;99.90
19805;DHT22;10062;51.052;13.756;2023-04-25T03:16:05;8.70;1.00
19805;DHT22;10062;51.052;13.756;2023-04-25T03:18:38;8.70;99.90
19805;DHT22;10062;51.052;13.756;2023-04-25T03:21:10;8.70;99.90
19805;DHT22;10062;51.052;13.756;2023-04-25T03:23:41;8.70;1.00
19805;DHT22;10062;51.052;13.756;2023-04-25T03:26:14;8.60;1.00
19805;DHT22;10062;51.052;13.756;2023-04-25T03:28:46;8.50;1.00
19805;DHT22;10062;51.052;13.756;2023-04-25T03:31:19;8.40;1.00
19805;DHT22;10062;51.052;13.756;2023-04-25T03:33:51;8.40;99.90
19805;DHT22;10062;51.052;13.756;2023-04-25T03:36:25;8.40;1.00
19805;DHT22;10062;51.052;13.756;2023-04-25T03:38:58;8.40;1.00
19805;DHT22;10062;51.052;13.756;2023-04-25T03:41:31;8.40;1.00
19805;DHT22;10062;51.052;13.756;2023-04-25T03:44:08;8.30;1.00
19805;DHT22;10062;51.052;13.756;2023-04-25T03:46:40;8.30;99.90
19805;DHT22;10062;51.052;13.756;2023-04-25T03:49:13;8.30;8.00
19805;DHT22;10062;51.052;13.756;2023-04-25T03:52:02;8.20;99.90
19805;DHT22;10062;51.052;13.756;2023-04-25T03:54:40;8.20;99.90
19805;DHT22;10062;51.052;13.756;2023-04-25T03:57:16;8.10;1.00
19805;DHT22;10062;51.052;13.756;2023-04-25T04:02:20;8.00;1.00
19805;DHT22;10062;51.052;13.756;2023-04-25T04:04:52;8.00;1.00
19805;DHT22;10062;51.052;13.756;2023-04-25T04:07:26;8.00;1.00
19805;DHT22;10062;51.052;13.756;2023-04-25T04:10:01;8.20;1.00
19805;DHT22;10062;51.052;13.756;2023-04-25T04:12:40;7.90;1.00
19805;DHT22;10062;51.052;13.756;2023-04-25T04:15:12;7.90;1.00
19805;DHT22;10062;51.052;13.756;2023-04-25T04:22:50;7.90;99.90
19805;DHT22;10062;51.052;13.756;2023-04-25T04:25:23;7.90;99.90
19805;DHT22;10062;51.052;13.756;2023-04-25T04:28:35;8.00;1.00
19805;DHT22;10062;51.052;13.756;2023-04-25T04:31:20;8.20;1.00
19805;DHT22;10062;51.052;13.756;2023-04-25T04:33:52;8.20;1.00
19805;DHT22;10062;51.052;13.756;2023-04-25T04:36:24;8.30;99.90
19805;DHT22;10062;51.052;13.756;2023-04-25T04:38:57;8.40;1.00
19805;DHT22;10062;51.052;13.756;2023-04-25T04:41:39;8.30;1.00
19805;DHT22;10062;51.052;13.756;2023-04-25T04:44:18;8.30;99.90
19805;DHT22;10062;51.052;13.756;2023-04-25T04:47:11;8.30;99.90
19805;DHT22;10062;51.052;13.756;2023-04-25T04:50:06;8.20;99.90
19805;DHT22;10062;51.052;13.756;2023-04-25T04:52:56;8.30;4.00
19805;DHT22;10062;51.052;13.756;2023-04-25T04:55:40;8.30;99.90
19805;DHT22;10062;51.052;13.756;2023-04-25T04:58:31;8.30;99.90
19805;DHT22;10062;51.052;13.756;2023-04-25T05:01:24;8.30;12.40
19805;DHT22;10062;51.052;13.756;2023-04-25T05:04:03;8.30;99.90
19805;DHT22;10062;51.052;13.756;2023-04-25T05:06:54;8.30;99.90
19805;DHT22;10062;51.052;13.756;2023-04-25T05:09:44;8.30;99.90
19805;DHT22;10062;51.052;13.756;2023-04-25T05:12:36;8.30;99.90
19805;DHT22;10062;51.052;13.756;2023-04-25T05:15:40;8.30;1.00
19805;DHT22;10062;51.052;13.756;2023-04-25T05:18:36;8.30;99.90
19805;DHT22;10062;51.052;13.756;2023-04-25T05:21:13;8.50;1.00
19805;DHT22;10062;51.052;13.756;2023-04-25T05:23:59;8.50;1.00
19805;DHT22;10062;51.052;13.756;2023-04-25T05:26:49;8.60;99.90
19805;DHT22;10062;51.052;13.756;2023-04-25T05:29:47;8.70;1.00
19805;DHT22;10062;51.052;13.756;2023-04-25T05:32:37;8.80;1.00
19805;DHT22;10062;51.052;13.756;2023-04-25T05:35:10;8.80;1.00
19805;DHT22;10062;51.052;13.756;2023-04-25T05:37:48;8.90;1.00
19805;DHT22;10062;51.052;13.756;2023-04-25T05:40:20;8.90;99.90
19805;DHT22;10062;51.052;13.756;2023-04-25T05:45:53;9.00;1.00
19805;DHT22;10062;51.052;13.756;2023-04-25T05:48:31;9.00;99.90
19805;DHT22;10062;51.052;13.756;2023-04-25T05:51:38;9.00;1.00
19805;DHT22;10062;51.052;13.756;2023-04-25T05:54:21;9.10;1.00
19805;DHT22;10062;51.052;13.756;2023-04-25T05:56:53;9.20;1.00
19805;DHT22;10062;51.052;13.756;2023-04-25T05:59:24;9.20;1.00
19805;DHT22;10062;51.052;13.756;2023-04-25T06:01:56;9.20;99.90
19805;DHT22;10062;51.052;13.756;2023-04-25T06:04:28;9.30;99.90
19805;DHT22;10062;51.052;13.756;2023-04-25T06:07:01;9.40;99.90
19805;DHT22;10062;51.052;13.756;2023-04-25T06:09:33;9.40;99.90
19805;DHT22;10062;51.052;13.756;2023-04-25T06:12:05;9.50;99.90
19805;DHT22;10062;51.052;13.756;2023-04-25T06:14:38;9.70;1.00
19805;DHT22;10062;51.052;13.756;2023-04-25T06:17:10;9.70;1.00
19805;DHT22;10062;51.052;13.756;2023-04-25T06:19:41;9.80;40.60
19805;DHT22;10062;51.052;13.756;2023-04-25T06:22:14;9.90;99.90
19805;DHT22;10062;51.052;13.756;2023-04-25T06:24:46;10.20;99.90
19805;DHT22;10062;51.052;13.756;2023-04-25T06:27:18;10.30;1.00
19805;DHT22;10062;51.052;13.756;2023-04-25T06:29:50;10.40;1.00
19805;DHT22;10062;51.052;13.756;2023-04-25T06:32:22;10.50;1.00
19805;DHT22;10062;51.052;13.756;2023-04-25T06:34:53;10.70;99.90
19805;DHT22;10062;51.052;13.756;2023-04-25T06:37:27;10.90;1.00
19805;DHT22;10062;51.052;13.756;2023-04-25T06:39:59;11.00;1.00
19805;DHT22;10062;51.052;13.756;2023-04-25T06:42:31;11.20;1.00
19805;DHT22;10062;51.052;13.756;2023-04-25T06:45:04;11.40;99.90
19805;DHT22;10062;51.052;13.756;2023-04-25T06:47:36;11.70;99.90
19805;DHT22;10062;51.052;13.756;2023-04-25T06:50:08;12.00;99.90
19805;DHT22;10062;51.052;13.756;2023-04-25T06:52:42;12.20;1.00
19805;DHT22;10062;51.052;13.756;2023-04-25T06:55:14;12.50;1.00
19805;DHT22;10062;51.052;13.756;2023-04-25T06:58:03;12.80;1.00
19805;DHT22;10062;51.052;13.756;2023-04-25T07:00:58;13.10;1.00
19805;DHT22;10062;51.052;13.756;2023-04-25T07:03:32;13.40;1.00
19805;DHT22;10062;51.052;13.756;2023-04-25T07:06:08;13.40;1.00
19805;DHT22;10062;51.052;13.756;2023-04-25T07:08:41;14.10;1.00
19805;DHT22;10062;51.052;13.756;2023-04-25T07:11:12;14.20;1.00
19805;DHT22;10062;51.052;13.756;2023-04-25T07:13:45;14.60;99.90
19805;DHT22;10062;51.052;13.756;2023-04-25T07:16:16;15.10;99.90
19805;DHT22;10062;51.052;13.756;2023-04-25T07:18:48;15.30;99.90
19805;DHT22;10062;51.052;13.756;2023-04-25T07:21:20;15.70;99.90
19805;DHT22;10062;51.052;13.756;2023-04-25T07:23:55;16.50;90.90
19805;DHT22;10062;51.052;13.756;2023-04-25T07:26:32;16.90;32.60
19805;DHT22;10062;51.052;13.756;2023-04-25T07:29:25;17.00;1.00
19805;DHT22;10062;51.052;13.756;2023-04-25T07:31:56;16.40;1.00
19805;DHT22;10062;51.052;13.756;2023-04-25T07:34:28;16.60;1.00
19805;DHT22;10062;51.052;13.756;2023-04-25T07:37:00;16.60;1.00
19805;DHT22;10062;51.052;13.756;2023-04-25T07:39:40;15.60;1.00
19805;DHT22;10062;51.052;13.756;2023-04-25T07:42:12;15.00;1.00
19805;DHT22;10062;51.052;13.756;2023-04-25T07:44:47;16.10;1.00
19805;DHT22;10062;51.052;13.756;2023-04-25T07:47:19;17.00;1.00
19805;DHT22;10062;51.052;13.756;2023-04-25T07:49:51;17.30;1.00
19805;DHT22;10062;51.052;13.756;2023-04-25T07:52:23;18.40;1.00
19805;DHT22;10062;51.052;13.756;2023-04-25T07:55:03;19.10;1.00
19805;DHT22;10062;51.052;13.756;2023-04-25T07:57:45;18.60;1.00
19805;DHT22;10062;51.052;13.756;2023-04-25T08:00:18;17.50;1.00
19805;DHT22;10062;51.052;13.756;2023-04-25T08:02:56;18.80;1.00
19805;DHT22;10062;51.052;13.756;2023-04-25T08:05:28;23.50;1.00
19805;DHT22;10062;51.052;13.756;2023-04-25T08:08:06;22.00;1.00
19805;DHT22;10062;51.052;13.756;2023-04-25T08:10:39;23.90;1.00
19805;DHT22;10062;51.052;13.756;2023-04-25T08:13:11;26.30;1.00
19805;DHT22;10062;51.052;13.756;2023-04-25T08:15:44;25.20;1.00
19805;DHT22;10062;51.052;13.756;2023-04-25T08:18:15;26.30;1.00
19805;DHT22;10062;51.052;13.756;2023-04-25T08:20:48;26.60;1.00
19805;DHT22;10062;51.052;13.756;2023-04-25T08:23:20;25.00;1.00
19805;DHT22;10062;51.052;13.756;2023-04-25T08:26:08;20.60;1.00
19805;DHT22;10062;51.052;13.756;2023-04-25T08:28:46;20.30;1.00
19805;DHT22;10062;51.052;13.756;2023-04-25T08:31:18;23.40;1.00
19805;DHT22;10062;51.052;13.756;2023-04-25T08:34:01;23.60;1.00
19805;DHT22;10062;51.052;13.756;2023-04-25T08:36:45;23.50;1.00
19805;DHT22;10062;51.052;13.756;2023-04-25T08:39:27;20.00;1.00
19805;DHT22;10062;51.052;13.756;2023-04-25T08:42:19;19.80;1.00
19805;DHT22;10062;51.052;13.756;2023-04-25T08:44:53;17.30;1.00
19805;DHT22;10062;51.052;13.756;2023-04-25T08:47:30;16.30;1.00
19805;DHT22;10062;51.052;13.756;2023-04-25T08:50:05;15.60;1.00
19805;DHT22;10062;51.052;13.756;2023-04-25T08:52:44;15.00;1.00
19805;DHT22;10062;51.052;13.756;2023-04-25T08:57:50;15.00;1.00
19805;DHT22;10062;51.052;13.756;2023-04-25T09:05:28;14.50;1.00
19805;DHT22;10062;51.052;13.756;2023-04-25T09:08:00;14.40;1.00
19805;DHT22;10062;51.052;13.756;2023-04-25T09:10:32;14.50;1.00
19805;DHT22;10062;51.052;13.756;2023-04-25T09:13:07;14.50;1.00
19805;DHT22;10062;51.052;13.756;2023-04-25T09:16:04;14.30;1.00
19805;DHT22;10062;51.052;13.756;2023-04-25T09:21:22;14.50;1.00
19805;DHT22;10062;51.052;13.756;2023-04-25T09:23:55;14.70;1.00
19805;DHT22;10062;51.052;13.756;2023-04-25T09:26:27;14.30;1.00
19805;DHT22;10062;51.052;13.756;2023-04-25T09:29:06;14.10;3.00
19805;DHT22;10062;51.052;13.756;2023-04-25T09:31:40;13.90;54.50
19805;DHT22;10062;51.052;13.756;2023-04-25T09:36:54;13.20;99.90
19805;DHT22;10062;51.052;13.756;2023-04-25T09:39:47;13.10;99.90
19805;DHT22;10062;51.052;13.756;2023-04-25T09:42:22;13.00;99.90
19805;DHT22;10062;51.052;13.756;2023-04-25T09:50:00;12.80;1.00
19805;DHT22;10062;51.052;13.756;2023-04-25T09:52:33;12.40;1.00
19805;DHT22;10062;51.052;13.756;2023-04-25T09:55:20;12.20;1.00
19805;DHT22;10062;51.052;13.756;2023-04-25T09:57:52;12.10;1.00
19805;DHT22;10062;51.052;13.756;2023-04-25T10:00:27;12.10;1.00
19805;DHT22;10062;51.052;13.756;2023-04-25T10:03:01;12.20;1.00
19805;DHT22;10062;51.052;13.756;2023-04-25T10:06:01;12.30;1.00
19805;DHT22;10062;51.052;13.756;2023-04-25T10:08:36;12.40;1.00
19805;DHT22;10062;51.052;13.756;2023-04-25T10:11:09;12.50;1.00
19805;DHT22;10062;51.052;13.756;2023-04-25T10:13:41;13.00;1.00
19805;DHT22;10062;51.052;13.756;2023-04-25T10:16:15;13.50;1.00
19805;DHT22;10062;51.052;13.756;2023-04-25T10:18:48;13.80;1.00
19805;DHT22;10062;51.052;13.756;2023-04-25T10:21:21;14.00;1.00
19805;DHT22;10062;51.052;13.756;2023-04-25T10:23:53;14.20;99.90
19805;DHT22;10062;51.052;13.756;2023-04-25T10:28:59;13.90;99.90
19805;DHT22;10062;51.052;13.756;2023-04-25T10:31:32;13.80;1.00
19805;DHT22;10062;51.052;13.756;2023-04-25T10:36:37;13.60;1.00
19805;DHT22;10062;51.052;13.756;2023-04-25T10:41:52;13.80;1.00
19805;DHT22;10062;51.052;13.756;2023-04-25T10:44:27;13.70;1.00
19805;DHT22;10062;51.052;13.756;2023-04-25T10:47:01;13.70;1.00
19805;DHT22;10062;51.052;13.756;2023-04-25T10:49:34;13.70;1.00
19805;DHT22;10062;51.052;13.756;2023-04-25T10:52:15;13.60;1.00
19805;DHT22;10062;51.052;13.756;2023-04-25T10:54:48;13.60;1.00
19805;DHT22;10062;51.052;13.756;2023-04-25T10:57:31;13.50;1.00
19805;DHT22;10062;51.052;13.756;2023-04-25T11:00:12;13.30;1.00
19805;DHT22;10062;51.052;13.756;2023-04-25T11:02:48;13.10;1.00
19805;DHT22;10062;51.052;13.756;2023-04-25T11:05:23;12.80;1.00
19805;DHT22;10062;51.052;13.756;2023-04-25T11:07:55;12.60;1.00
19805;DHT22;10062;51.052;13.756;2023-04-25T11:10:28;12.30;1.00
19805;DHT22;10062;51.052;13.756;2023-04-25T11:13:01;12.10;1.00
19805;DHT22;10062;51.052;13.756;2023-04-25T11:15:32;12.10;99.90
19805;DHT22;10062;51.052;13.756;2023-04-25T11:18:05;12.10;99.90
19805;DHT22;10062;51.052;13.756;2023-04-25T11:20:37;12.10;99.90
19805;DHT22;10062;51.052;13.756;2023-04-25T11:30:48;11.90;99.90
19805;DHT22;10062;51.052;13.756;2023-04-25T11:35:58;12.30;79.80
19805;DHT22;10062;51.052;13.756;2023-04-25T11:38:29;12.50;1.00
19805;DHT22;10062;51.052;13.756;2023-04-25T11:43:33;12.80;99.90
19805;DHT22;10062;51.052;13.756;2023-04-25T11:46:07;12.80;99.90
19805;DHT22;10062;51.052;13.756;2023-04-25T11:48:40;12.70;91.90
19805;DHT22;10062;51.052;13.756;2023-04-25T11:51:12;12.80;1.00
19805;DHT22;10062;51.052;13.756;2023-04-25T11:56:17;13.10;1.00
19805;DHT22;10062;51.052;13.756;2023-04-25T11:58:56;13.10;1.00
19805;DHT22;10062;51.052;13.756;2023-04-25T12:01:29;13.10;1.00
19805;DHT22;10062;51.052;13.756;2023-04-25T12:04:12;13.40;1.00
19805;DHT22;10062;51.052;13.756;2023-04-25T12:06:45;13.30;1.00
19805;DHT22;10062;51.052;13.756;2023-04-25T12:09:20;13.30;1.00
19805;DHT22;10062;51.052;13.756;2023-04-25T12:11:53;13.40;1.00
19805;DHT22;10062;51.052;13.756;2023-04-25T12:17:00;13.40;99.90
19805;DHT22;10062;51.052;13.756;2023-04-25T12:19:34;13.40;1.00
19805;DHT22;10062;51.052;13.756;2023-04-25T12:22:20;13.30;1.00
19805;DHT22;10062;51.052;13.756;2023-04-25T12:27:25;12.90;1.00
19805;DHT22;10062;51.052;13.756;2023-04-25T12:29:58;12.80;1.00
19805;DHT22;10062;51.052;13.756;2023-04-25T12:35:03;12.80;99.90
19805;DHT22;10062;51.052;13.756;2023-04-25T12:45:12;13.60;99.90
19805;DHT22;10062;51.052;13.756;2023-04-25T12:47:44;13.90;99.90
19805;DHT22;10062;51.052;13.756;2023-04-25T12:50:17;14.10;99.90
19805;DHT22;10062;51.052;13.756;2023-04-25T12:52:49;13.90;99.90
19805;DHT22;10062;51.052;13.756;2023-04-25T12:55:20;13.80;99.90
19805;DHT22;10062;51.052;13.756;2023-04-25T12:57:52;13.50;99.90
19805;DHT22;10062;51.052;13.756;2023-04-25T13:00:24;13.20;99.90
19805;DHT22;10062;51.052;13.756;2023-04-25T13:02:56;13.00;99.90
19805;DHT22;10062;51.052;13.756;2023-04-25T13:05:30;13.10;99.90
19805;DHT22;10062;51.052;13.756;2023-04-25T13:08:01;13.20;99.90
19805;DHT22;10062;51.052;13.756;2023-04-25T13:10:33;13.20;99.90
19805;DHT22;10062;51.052;13.756;2023-04-25T13:15:38;12.80;99.90
19805;DHT22;10062;51.052;13.756;2023-04-25T13:20:43;12.30;99.90
19805;DHT22;10062;51.052;13.756;2023-04-25T13:23:16;12.20;99.90
19805;DHT22;10062;51.052;13.756;2023-04-25T13:25:48;12.00;99.90
19805;DHT22;10062;51.052;13.756;2023-04-25T13:30:51;11.60;1.00
19805;DHT22;10062;51.052;13.756;2023-04-25T13:35:57;11.40;1.00
19805;DHT22;10062;51.052;13.756;2023-04-25T13:43:33;11.10;1.00
19805;DHT22;10062;51.052;13.756;2023-04-25T13:46:05;11.10;1.00
19805;DHT22;10062;51.052;13.756;2023-04-25T13:48:37;11.10;1.00
19805;DHT22;10062;51.052;13.756;2023-04-25T13:51:09;11.10;1.00
19805;DHT22;10062;51.052;13.756;2023-04-25T13:53:41;11.00;1.00
19805;DHT22;10062;51.052;13.756;2023-04-25T13:56:13;10.90;1.00
19805;DHT22;10062;51.052;13.756;2023-04-25T14:06:22;11.00;1.00
19805;DHT22;10062;51.052;13.756;2023-04-25T14:08:54;11.00;1.00
19805;DHT22;10062;51.052;13.756;2023-04-25T14:11:26;11.00;1.00
19805;DHT22;10062;51.052;13.756;2023-04-25T14:16:30;11.10;1.00
19805;DHT22;10062;51.052;13.756;2023-04-25T14:19:02;11.20;1.00
19805;DHT22;10062;51.052;13.756;2023-04-25T14:21:35;11.10;1.00
19805;DHT22;10062;51.052;13.756;2023-04-25T14:24:07;11.30;1.00
19805;DHT22;10062;51.052;13.756;2023-04-25T14:26:39;11.20;1.00
19805;DHT22;10062;51.052;13.756;2023-04-25T14:29:11;11.40;1.00
19805;DHT22;10062;51.052;13.756;2023-04-25T14:31:43;11.50;1.00
19805;DHT22;10062;51.052;13.756;2023-04-25T14:34:15;11.70;99.90
19805;DHT22;10062;51.052;13.756;2023-04-25T14:36:48;12.00;99.90
19805;DHT22;10062;51.052;13.756;2023-04-25T14:39:20;12.10;99.90
19805;DHT22;10062;51.052;13.756;2023-04-25T14:41:51;12.20;99.90
19805;DHT22;10062;51.052;13.756;2023-04-25T14:46:55;12.50;99.90
19805;DHT22;10062;51.052;13.756;2023-04-25T14:52:00;12.40;99.90
19805;DHT22;10062;51.052;13.756;2023-04-25T14:54:32;12.30;99.90
19805;DHT22;10062;51.052;13.756;2023-04-25T14:57:04;12.40;99.90
19805;DHT22;10062;51.052;13.756;2023-04-25T15:04:40;12.20;99.90
19805;DHT22;10062;51.052;13.756;2023-04-25T15:07:13;12.20;99.90
19805;DHT22;10062;51.052;13.756;2023-04-25T15:09:47;12.20;99.90
19805;DHT22;10062;51.052;13.756;2023-04-25T15:12:19;12.10;99.90
19805;DHT22;10062;51.052;13.756;2023-04-25T15:14:51;12.00;99.90
19805;DHT22;10062;51.052;13.756;2023-04-25T15:17:23;12.00;99.90
19805;DHT22;10062;51.052;13.756;2023-04-25T15:19:54;12.00;99.90
19805;DHT22;10062;51.052;13.756;2023-04-25T15:22:27;12.00;99.90
19805;DHT22;10062;51.052;13.756;2023-04-25T15:24:59;12.00;92.00
19805;DHT22;10062;51.052;13.756;2023-04-25T15:30:04;11.70;18.30
19805;DHT22;10062;51.052;13.756;2023-04-25T15:32:37;11.50;27.60
19805;DHT22;10062;51.052;13.756;2023-04-25T15:35:10;11.40;48.60
19805;DHT22;10062;51.052;13.756;2023-04-25T15:37:43;11.30;68.50
19805;DHT22;10062;51.052;13.756;2023-04-25T15:40:15;11.20;71.30
19805;DHT22;10062;51.052;13.756;2023-04-25T15:42:48;11.20;90.70
19805;DHT22;10062;51.052;13.756;2023-04-25T15:45:23;11.10;79.60
19805;DHT22;10062;51.052;13.756;2023-04-25T15:53:02;10.90;95.60
19805;DHT22;10062;51.052;13.756;2023-04-25T16:00:38;10.80;99.90
19805;DHT22;10062;51.052;13.756;2023-04-25T16:05:42;10.80;99.90
19805;DHT22;10062;51.052;13.756;2023-04-25T16:08:15;10.80;99.90
19805;DHT22;10062;51.052;13.756;2023-04-25T16:10:46;10.80;99.90
19805;DHT22;10062;51.052;13.756;2023-04-25T16:13:18;10.80;99.90
19805;DHT22;10062;51.052;13.756;2023-04-25T16:20:54;10.90;99.90
19805;DHT22;10062;51.052;13.756;2023-04-25T16:23:27;10.90;99.90
19805;DHT22;10062;51.052;13.756;2023-04-25T16:36:07;11.00;86.80
19805;DHT22;10062;51.052;13.756;2023-04-25T16:38:41;11.00;58.40
19805;DHT22;10062;51.052;13.756;2023-04-25T16:41:12;11.00;99.90
19805;DHT22;10062;51.052;13.756;2023-04-25T16:46:16;11.20;28.60
19805;DHT22;10062;51.052;13.756;2023-04-25T16:48:49;11.10;1.00
19805;DHT22;10062;51.052;13.756;2023-04-25T16:51:20;11.10;1.00
19805;DHT22;10062;51.052;13.756;2023-04-25T16:53:53;11.00;1.00
19805;DHT22;10062;51.052;13.756;2023-04-25T16:58:57;10.90;1.00
19805;DHT22;10062;51.052;13.756;2023-04-25T17:01:29;10.80;1.00
19805;DHT22;10062;51.052;13.756;2023-04-25T17:06:34;10.80;1.00
19805;DHT22;10062;51.052;13.756;2023-04-25T17:09:07;10.70;1.00
19805;DHT22;10062;51.052;13.756;2023-04-25T17:14:11;10.60;1.00
19805;DHT22;10062;51.052;13.756;2023-04-25T17:16:43;10.50;1.00
19805;DHT22;10062;51.052;13.756;2023-04-25T17:19:15;10.40;1.00
19805;DHT22;10062;51.052;13.756;2023-04-25T17:21:47;10.40;1.00
19805;DHT22;10062;51.052;13.756;2023-04-25T17:24:20;10.50;1.00
19805;DHT22;10062;51.052;13.756;2023-04-25T17:31:57;10.50;1.00
19805;DHT22;10062;51.052;13.756;2023-04-25T17:34:29;10.40;1.00
19805;DHT22;10062;51.052;13.756;2023-04-25T17:37:01;10.40;1.00
19805;DHT22;10062;51.052;13.756;2023-04-25T17:39:34;10.20;1.00
19805;DHT22;10062;51.052;13.756;2023-04-25T17:42:05;10.20;1.00
19805;DHT22;10062;51.052;13.756;2023-04-25T17:44:37;10.20;11.50
19805;DHT22;10062;51.052;13.756;2023-04-25T17:47:09;10.10;8.40
19805;DHT22;10062;51.052;13.756;2023-04-25T17:54:47;9.90;1.00
19805;DHT22;10062;51.052;13.756;2023-04-25T17:57:18;9.80;1.00
19805;DHT22;10062;51.052;13.756;2023-04-25T17:59:52;9.80;1.00
19805;DHT22;10062;51.052;13.756;2023-04-25T18:02:25;9.70;1.00
19805;DHT22;10062;51.052;13.756;2023-04-25T18:04:57;9.60;1.00
19805;DHT22;10062;51.052;13.756;2023-04-25T18:07:29;9.60;99.90
19805;DHT22;10062;51.052;13.756;2023-04-25T18:10:02;9.50;99.90
19805;DHT22;10062;51.052;13.756;2023-04-25T18:12:36;9.50;99.90
19805;DHT22;10062;51.052;13.756;2023-04-25T18:15:09;9.50;99.90
19805;DHT22;10062;51.052;13.756;2023-04-25T18:17:41;9.50;87.90
19805;DHT22;10062;51.052;13.756;2023-04-25T18:20:13;9.50;99.70
19805;DHT22;10062;51.052;13.756;2023-04-25T18:22:45;9.50;93.90
19805;DHT22;10062;51.052;13.756;2023-04-25T18:25:18;9.50;99.90
19805;DHT22;10062;51.052;13.756;2023-04-25T18:27:50;9.50;99.90
19805;DHT22;10062;51.052;13.756;2023-04-25T18:30:22;9.50;99.90
19805;DHT22;10062;51.052;13.756;2023-04-25T18:32:54;9.50;99.90
19805;DHT22;10062;51.052;13.756;2023-04-25T18:35:26;9.40;99.90
19805;DHT22;10062;51.052;13.756;2023-04-25T18:37:58;9.40;99.90
19805;DHT22;10062;51.052;13.756;2023-04-25T18:40:31;9.40;99.90
19805;DHT22;10062;51.052;13.756;2023-04-25T18:43:03;9.40;99.90
19805;DHT22;10062;51.052;13.756;2023-04-25T18:45:34;9.30;99.90
19805;DHT22;10062;51.052;13.756;2023-04-25T18:50:38;9.20;99.90
19805;DHT22;10062;51.052;13.756;2023-04-25T18:55:46;9.00;99.90
19805;DHT22;10062;51.052;13.756;2023-04-25T18:58:17;9.00;99.90
19805;DHT22;10062;51.052;13.756;2023-04-25T19:00:49;9.00;99.90
19805;DHT22;10062;51.052;13.756;2023-04-25T19:03:21;8.80;99.90
19805;DHT22;10062;51.052;13.756;2023-04-25T19:05:53;8.80;1.00
19805;DHT22;10062;51.052;13.756;2023-04-25T19:08:24;8.80;1.00